createdAt,value
2023-04-18T00:00:47.879Z,17.5292
2023-04-18T00:01:50.205Z,17.5218
2023-04-18T00:02:50.849Z,17.5181
2023-04-18T00:03:52.283Z,17.5153
2023-04-18T00:04:53.723Z,17.5050
2023-04-18T00:05:54.936Z,17.4951
2023-04-18T00:06:56.430Z,17.4882
2023-04-18T00:07:57.795Z,17.4880
2023-04-18T00:08:59.335Z,17.4832
2023-04-18T00:10:00.711Z,17.4859
2023-04-18T00:11:02.164Z,17.4830
2023-04-18T00:12:03.510Z,17.4730
2023-04-18T00:13:05.013Z,17.4857
2023-04-18T00:14:07.169Z,17.4978
2023-04-18T00:15:07.915Z,17.5036
2023-04-18T00:16:09.299Z,17.4956
2023-04-18T00:17:10.849Z,17.5089
2023-04-18T00:18:12.115Z,17.5079
2023-04-18T00:19:13.519Z,17.5101
2023-04-18T00:20:14.959Z,17.5101
2023-04-18T00:21:16.410Z,17.5194
2023-04-18T00:22:17.741Z,17.5167
2023-04-18T00:23:19.241Z,17.5225
2023-04-18T00:24:20.556Z,17.5257
2023-04-18T00:25:21.992Z,17.5315
2023-04-18T00:26:23.622Z,17.5340
2023-04-18T00:27:24.927Z,17.5459
2023-04-18T00:28:26.341Z,17.5430
2023-04-18T00:29:27.829Z,17.5274
2023-04-18T00:30:29.237Z,17.5214
2023-04-18T00:31:30.698Z,17.5200
2023-04-18T00:32:31.999Z,17.5108
2023-04-18T00:33:33.495Z,17.4999
2023-04-18T00:34:34.844Z,17.5105
2023-04-18T00:35:36.789Z,17.5181
2023-04-18T00:36:37.812Z,17.5110
2023-04-18T00:37:39.157Z,17.5163
2023-04-18T00:38:40.543Z,17.5179
2023-04-18T00:39:42.086Z,17.5393
2023-04-18T00:40:43.455Z,17.5432
2023-04-18T00:41:44.916Z,17.5428
2023-04-18T00:42:46.252Z,17.5508
2023-04-18T00:43:47.719Z,17.5362
2023-04-18T00:44:49.098Z,17.5235
2023-04-18T00:45:50.616Z,17.5212
2023-04-18T00:46:52.017Z,17.5155
2023-04-18T00:47:53.462Z,17.5181
2023-04-18T00:48:54.815Z,17.5163
2023-04-18T00:49:56.288Z,17.5218
2023-04-18T00:50:57.762Z,17.5221
2023-04-18T00:51:59.211Z,17.5247
2023-04-18T00:53:00.555Z,17.5221
2023-04-18T00:54:01.979Z,17.5317
2023-04-18T00:55:03.364Z,17.5200
2023-04-18T00:56:05.276Z,17.5338
2023-04-18T00:57:06.276Z,17.5325
2023-04-18T00:58:07.673Z,17.5348
2023-04-18T00:59:09.151Z,17.5235
2023-04-18T01:00:10.527Z,17.5243
2023-04-18T01:01:12.044Z,17.5241
2023-04-18T01:02:13.452Z,17.5210
2023-04-18T01:03:14.959Z,17.5151
2023-04-18T01:04:17.345Z,17.5149
2023-04-18T01:05:17.656Z,17.5212
2023-04-18T01:06:19.232Z,17.5297
2023-04-18T01:07:20.516Z,17.5241
2023-04-18T01:08:21.909Z,17.5333
2023-04-18T01:09:23.359Z,17.5344
2023-04-18T01:10:24.776Z,17.5340
2023-04-18T01:11:26.289Z,17.5420
2023-04-18T01:12:27.678Z,17.5338
2023-04-18T01:13:29.100Z,17.5459
2023-04-18T01:14:30.481Z,17.5397
2023-04-18T01:15:31.991Z,17.5535
2023-04-18T01:16:33.397Z,17.5543
2023-04-18T01:17:34.873Z,17.5541
2023-04-18T01:18:36.273Z,17.5514
2023-04-18T01:19:37.646Z,17.5370
2023-04-18T01:20:39.007Z,17.5432
2023-04-18T01:21:40.557Z,17.5309
2023-04-18T01:22:41.885Z,17.5231
2023-04-18T01:23:43.331Z,17.5120
2023-04-18T01:24:44.763Z,17.5064
2023-04-18T01:25:46.202Z,17.5157
2023-04-18T01:26:47.700Z,17.5208
2023-04-18T01:27:49.164Z,17.5292
2023-04-18T01:28:50.491Z,17.5184
2023-04-18T01:29:51.991Z,17.5216
2023-04-18T01:30:53.370Z,17.5276
2023-04-18T01:31:55.034Z,17.5204
2023-04-18T01:32:56.393Z,17.5181
2023-04-18T01:33:57.844Z,17.5233
2023-04-18T01:34:59.206Z,17.5342
2023-04-18T01:36:00.615Z,17.5358
2023-04-18T01:37:02.162Z,17.5346
2023-04-18T01:38:03.575Z,17.5210
2023-04-18T01:39:04.893Z,17.5110
2023-04-18T01:40:06.349Z,17.5005
2023-04-18T01:41:07.758Z,17.4982
2023-04-18T01:42:09.300Z,17.4933
2023-04-18T01:43:10.643Z,17.4880
2023-04-18T01:44:12.296Z,17.5011
2023-04-18T01:45:13.468Z,17.5110
2023-04-18T01:46:15.019Z,17.5130
2023-04-18T01:47:16.423Z,17.5173
2023-04-18T01:48:17.919Z,17.5167
2023-04-18T01:49:19.216Z,17.5305
2023-04-18T01:50:20.696Z,17.5221
2023-04-18T01:51:22.072Z,17.5325
2023-04-18T01:52:23.633Z,17.5375
2023-04-18T01:53:24.977Z,17.5325
2023-04-18T01:54:26.405Z,17.5527
2023-04-18T01:55:27.794Z,17.5703
2023-04-18T01:56:29.398Z,17.5650
2023-04-18T01:57:30.764Z,17.5666
2023-04-18T01:58:32.159Z,17.5479
2023-04-18T01:59:33.489Z,17.5640
2023-04-18T02:00:35.012Z,17.5810
2023-04-18T02:01:36.433Z,17.6009
2023-04-18T02:02:38.052Z,17.6147
2023-04-18T02:03:39.514Z,17.6065
2023-04-18T02:04:40.727Z,17.5868
2023-04-18T02:05:42.108Z,17.5732
2023-04-18T02:06:43.607Z,17.5654
2023-04-18T02:07:44.994Z,17.5533
2023-04-18T02:08:46.519Z,17.5397
2023-04-18T02:09:47.775Z,17.5305
2023-04-18T02:10:49.261Z,17.5264
2023-04-18T02:11:50.654Z,17.5110
2023-04-18T02:12:52.155Z,17.5237
2023-04-18T02:13:53.597Z,17.5149
2023-04-18T02:14:54.999Z,17.5153
2023-04-18T02:15:56.382Z,17.5272
2023-04-18T02:16:57.950Z,17.5395
2023-04-18T02:17:59.378Z,17.5516
2023-04-18T02:19:00.727Z,17.5580
2023-04-18T02:20:02.161Z,17.5568
2023-04-18T02:21:03.591Z,17.5576
2023-04-18T02:22:04.962Z,17.5444
2023-04-18T02:23:06.451Z,17.5383
2023-04-18T02:24:07.904Z,17.5477
2023-04-18T02:25:09.293Z,17.5533
2023-04-18T02:26:10.693Z,17.5666
2023-04-18T02:27:12.136Z,17.5490
2023-04-18T02:28:13.597Z,17.5594
2023-04-18T02:29:15.036Z,17.5561
2023-04-18T02:30:16.447Z,17.5664
2023-04-18T02:31:17.842Z,17.5744
2023-04-18T02:32:19.279Z,17.5711
2023-04-18T02:33:20.802Z,17.5646
2023-04-18T02:34:22.216Z,17.5685
2023-04-18T02:35:23.641Z,17.5642
2023-04-18T02:36:25.049Z,17.5711
2023-04-18T02:37:26.522Z,17.5812
2023-04-18T02:38:28.301Z,17.5849
2023-04-18T02:39:29.332Z,17.6116
2023-04-18T02:40:30.766Z,17.5884
2023-04-18T02:41:32.199Z,17.5637
2023-04-18T02:42:33.714Z,17.5373
2023-04-18T02:43:35.080Z,17.5255
2023-04-18T02:44:36.762Z,17.5290
2023-04-18T02:45:37.927Z,17.5145
2023-04-18T02:46:39.305Z,17.5128
2023-04-18T02:47:51.127Z,17.5231
2023-04-18T02:48:42.322Z,17.5118
2023-04-18T02:49:43.664Z,17.5202
2023-04-18T02:50:44.992Z,17.5149
2023-04-18T02:51:46.487Z,17.5167
2023-04-18T02:52:47.927Z,17.5237
2023-04-18T02:53:49.394Z,17.4902
2023-04-18T02:54:50.834Z,17.6057
2023-04-18T02:55:52.217Z,17.8041
2023-04-18T02:56:53.649Z,18.0122
2023-04-18T02:57:55.088Z,18.2256
2023-04-18T02:58:56.525Z,18.3733
2023-04-18T02:59:58.010Z,18.4608
2023-04-18T03:00:59.340Z,18.5078
2023-04-18T03:02:00.909Z,18.5684
2023-04-18T03:03:02.344Z,18.6309
2023-04-18T03:04:03.744Z,18.7009
2023-04-18T03:05:05.211Z,18.7617
2023-04-18T03:06:06.564Z,18.8396
2023-04-18T03:07:08.728Z,18.9024
2023-04-18T03:08:09.349Z,18.9632
2023-04-18T03:09:10.838Z,18.9936
2023-04-18T03:10:12.344Z,19.0174
2023-04-18T03:11:13.676Z,19.0478
2023-04-18T03:12:15.046Z,19.0710
2023-04-18T03:13:16.538Z,19.0976
2023-04-18T03:14:17.958Z,19.1138
2023-04-18T03:15:19.403Z,19.1844
2023-04-18T03:16:20.958Z,19.2185
2023-04-18T03:17:22.256Z,19.2331
2023-04-18T03:18:23.605Z,19.2452
2023-04-18T03:19:25.130Z,19.2637
2023-04-18T03:20:26.563Z,19.2906
2023-04-18T03:21:27.964Z,19.3479
2023-04-18T03:22:29.322Z,19.3640
2023-04-18T03:23:30.790Z,19.3687
2023-04-18T03:24:32.293Z,19.4172
2023-04-18T03:25:33.794Z,19.4188
2023-04-18T03:26:35.107Z,19.4406
2023-04-18T03:27:36.510Z,19.4373
2023-04-18T03:28:37.934Z,19.4691
2023-04-18T03:29:39.405Z,19.4751
2023-04-18T03:30:40.802Z,19.4845
2023-04-18T03:31:42.277Z,19.4882
2023-04-18T03:32:43.715Z,19.4919
2023-04-18T03:33:45.083Z,19.5264
2023-04-18T03:34:46.549Z,19.5439
2023-04-18T03:35:48.116Z,19.5589
2023-04-18T03:36:49.354Z,19.5755
2023-04-18T03:37:50.829Z,19.5640
2023-04-18T03:38:52.232Z,19.5872
2023-04-18T03:39:53.725Z,19.5731
2023-04-18T03:40:55.124Z,19.5536
2023-04-18T03:41:56.540Z,19.5369
2023-04-18T03:42:57.927Z,19.5332
2023-04-18T03:43:59.438Z,19.5566
2023-04-18T03:45:01.252Z,19.6240
2023-04-18T03:46:02.373Z,19.6429
2023-04-18T03:47:03.647Z,19.6583
2023-04-18T03:48:05.088Z,19.6485
2023-04-18T03:49:06.429Z,19.6291
2023-04-18T03:50:07.959Z,19.6183
2023-04-18T03:51:09.344Z,19.5881
2023-04-18T03:52:10.787Z,19.6242
2023-04-18T03:53:12.195Z,19.6464
2023-04-18T03:54:13.886Z,19.6423
2023-04-18T03:55:15.376Z,19.6963
2023-04-18T03:56:16.574Z,19.6460
2023-04-18T03:57:17.875Z,19.6850
2023-04-18T03:58:19.313Z,19.7132
2023-04-18T03:59:20.752Z,19.7388
2023-04-18T04:00:22.402Z,19.7226
2023-04-18T04:01:23.682Z,19.7267
2023-04-18T04:02:25.237Z,19.7378
2023-04-18T04:03:26.541Z,19.7017
2023-04-18T04:04:28.016Z,19.7037
2023-04-18T04:05:29.453Z,19.6717
2023-04-18T04:06:30.857Z,19.7105
2023-04-18T04:07:32.244Z,19.7232
2023-04-18T04:08:33.697Z,19.7310
2023-04-18T04:09:35.153Z,19.7442
2023-04-18T04:10:36.547Z,19.7840
2023-04-18T04:11:38.020Z,19.7812
2023-04-18T04:12:39.447Z,19.7567
2023-04-18T04:13:40.818Z,19.7177
2023-04-18T04:14:42.244Z,19.7027
2023-04-18T04:15:43.766Z,19.7267
2023-04-18T04:16:45.259Z,19.7440
2023-04-18T04:17:46.642Z,19.7376
2023-04-18T04:18:47.979Z,19.7345
2023-04-18T04:19:49.416Z,19.7409
2023-04-18T04:20:50.820Z,19.7462
2023-04-18T04:21:52.285Z,19.7485
2023-04-18T04:22:53.682Z,19.7526
2023-04-18T04:23:55.104Z,19.7247
2023-04-18T04:24:56.494Z,19.7012
2023-04-18T04:25:58.094Z,19.6990
2023-04-18T04:26:59.450Z,19.6807
2023-04-18T04:28:00.865Z,19.6261
2023-04-18T04:29:02.227Z,19.5540
2023-04-18T04:30:03.761Z,19.5024
2023-04-18T04:31:05.140Z,19.5476
2023-04-18T04:32:06.746Z,19.6634
2023-04-18T04:33:07.961Z,19.7376
2023-04-18T04:34:09.395Z,19.7612
2023-04-18T04:35:10.762Z,19.7415
2023-04-18T04:36:12.305Z,19.7027
2023-04-18T04:37:13.748Z,19.6998
2023-04-18T04:38:15.196Z,19.7399
2023-04-18T04:39:16.567Z,19.7618
2023-04-18T04:40:17.973Z,19.7756
2023-04-18T04:41:19.410Z,19.7803
2023-04-18T04:42:20.934Z,19.8477
2023-04-18T04:43:22.280Z,19.7892
2023-04-18T04:44:23.744Z,19.7086
2023-04-18T04:45:25.052Z,19.7727
2023-04-18T04:46:26.576Z,19.7814
2023-04-18T04:47:28.094Z,19.7822
2023-04-18T04:48:29.446Z,19.8249
2023-04-18T04:49:30.846Z,19.7770
2023-04-18T04:50:32.307Z,19.8009
2023-04-18T04:51:33.720Z,19.8118
2023-04-18T04:52:35.131Z,19.8411
2023-04-18T04:53:36.575Z,19.8691
2023-04-18T04:54:38.045Z,19.9594
2023-04-18T04:55:39.382Z,20.1566
2023-04-18T04:56:40.903Z,20.3518
2023-04-18T04:57:42.370Z,20.5288
2023-04-18T04:58:43.800Z,20.6168
2023-04-18T04:59:45.145Z,20.7577
2023-04-18T05:00:46.610Z,20.9664
2023-04-18T05:01:48.068Z,21.0943
2023-04-18T05:02:49.617Z,21.1991
2023-04-18T05:03:51.512Z,21.4822
2023-04-18T05:04:52.359Z,21.7145
2023-04-18T05:05:53.739Z,21.9710
2023-04-18T05:06:55.168Z,22.0181
2023-04-18T05:07:56.612Z,22.0704
2023-04-18T05:08:58.068Z,22.2151
2023-04-18T05:09:59.582Z,22.3517
2023-04-18T05:11:00.835Z,22.5739
2023-04-18T05:12:02.328Z,22.8483
2023-04-18T05:13:03.717Z,23.0094
2023-04-18T05:14:05.286Z,23.1158
2023-04-18T05:15:06.623Z,23.2374
2023-04-18T05:16:08.044Z,23.1449
2023-04-18T05:17:09.512Z,23.1443
2023-04-18T05:18:10.914Z,23.2392
2023-04-18T05:19:12.405Z,23.3536
2023-04-18T05:20:13.870Z,23.5145
2023-04-18T05:21:15.249Z,23.6383
2023-04-18T05:22:16.666Z,23.5502
2023-04-18T05:23:18.101Z,23.4697
2023-04-18T05:24:19.496Z,23.4646
2023-04-18T05:25:20.968Z,23.6459
2023-04-18T05:26:22.404Z,23.8949
2023-04-18T05:27:23.799Z,23.8896
2023-04-18T05:28:25.152Z,23.7928
2023-04-18T05:29:26.611Z,23.6480
2023-04-18T05:30:28.047Z,23.7760
2023-04-18T05:31:29.587Z,24.0212
2023-04-18T05:32:30.969Z,24.2342
2023-04-18T05:33:32.399Z,24.2157
2023-04-18T05:34:33.973Z,24.0372
2023-04-18T05:35:35.314Z,23.9282
2023-04-18T05:36:36.722Z,24.0381
2023-04-18T05:37:38.139Z,24.2780
2023-04-18T05:38:39.630Z,24.4865
2023-04-18T05:39:41.042Z,24.3906
2023-04-18T05:40:42.458Z,24.2172
2023-04-18T05:41:43.818Z,24.1083
2023-04-18T05:42:45.347Z,24.3195
2023-04-18T05:43:54.531Z,24.5347
2023-04-18T05:44:48.192Z,24.5884
2023-04-18T05:45:49.537Z,24.4571
2023-04-18T05:46:50.965Z,24.3096
2023-04-18T05:47:52.908Z,24.2872
2023-04-18T05:48:53.995Z,24.5080
2023-04-18T05:49:55.272Z,24.6746
2023-04-18T05:50:56.771Z,24.6592
2023-04-18T05:51:58.928Z,24.4885
2023-04-18T05:52:59.627Z,24.3628
2023-04-18T05:54:01.145Z,24.4156
2023-04-18T05:55:02.453Z,24.6220
2023-04-18T05:56:03.838Z,24.8219
2023-04-18T05:57:05.263Z,24.7350
2023-04-18T05:58:06.879Z,24.5124
2023-04-18T05:59:08.137Z,24.4201
2023-04-18T06:00:09.587Z,24.5656
2023-04-18T06:01:10.981Z,24.8250
2023-04-18T06:02:12.509Z,24.8449
2023-04-18T06:03:14.046Z,24.6644
2023-04-18T06:04:15.640Z,24.4746
2023-04-18T06:05:16.835Z,24.5563
2023-04-18T06:06:18.108Z,24.7669
2023-04-18T06:07:19.579Z,24.9205
2023-04-18T06:08:20.993Z,24.8576
2023-04-18T06:09:22.390Z,24.6763
2023-04-18T06:10:23.924Z,24.6465
2023-04-18T06:11:25.830Z,24.8007
2023-04-18T06:12:26.728Z,24.9821
2023-04-18T06:13:28.337Z,25.0251
2023-04-18T06:14:29.619Z,24.8160
2023-04-18T06:15:30.897Z,24.6239
2023-04-18T06:16:32.513Z,24.6602
2023-04-18T06:17:33.833Z,24.8928
2023-04-18T06:18:35.298Z,25.0355
2023-04-18T06:19:36.687Z,24.9187
2023-04-18T06:20:38.167Z,24.7034
2023-04-18T06:21:39.525Z,24.6278
2023-04-18T06:22:41.108Z,24.8788
2023-04-18T06:23:42.462Z,25.0450
2023-04-18T06:24:43.876Z,25.0448
2023-04-18T06:25:45.257Z,24.8844
2023-04-18T06:26:46.674Z,24.8223
2023-04-18T06:27:48.198Z,24.9363
2023-04-18T06:28:49.900Z,25.0606
2023-04-18T06:29:51.006Z,25.1627
2023-04-18T06:30:52.661Z,25.0466
2023-04-18T06:31:53.889Z,24.8638
2023-04-18T06:32:55.244Z,24.8552
2023-04-18T06:33:56.884Z,25.0047
2023-04-18T06:34:58.114Z,25.1890
2023-04-18T06:35:59.564Z,25.1951
2023-04-18T06:37:00.964Z,24.9990
2023-04-18T06:38:02.453Z,24.8266
2023-04-18T06:39:03.908Z,24.9203
2023-04-18T06:40:05.298Z,25.0793
2023-04-18T06:41:06.692Z,25.1818
2023-04-18T06:42:08.852Z,25.0240
2023-04-18T06:43:09.532Z,24.8652
2023-04-18T06:44:11.078Z,24.8550
2023-04-18T06:45:12.372Z,25.0793
2023-04-18T06:46:13.917Z,25.2399
2023-04-18T06:47:15.176Z,25.1380
2023-04-18T06:48:16.571Z,24.9836
2023-04-18T06:49:18.104Z,24.9719
2023-04-18T06:50:19.538Z,25.0764
2023-04-18T06:51:20.939Z,25.2664
2023-04-18T06:52:22.329Z,25.3258
2023-04-18T06:53:23.748Z,25.0312
2023-04-18T06:54:25.215Z,24.9092
2023-04-18T06:55:26.678Z,25.0327
2023-04-18T06:56:28.131Z,25.1847
2023-04-18T06:57:29.452Z,25.2372
2023-04-18T06:58:30.850Z,25.0622
2023-04-18T06:59:32.351Z,24.9022
2023-04-18T07:00:33.825Z,24.9758
2023-04-18T07:01:35.906Z,25.2013
2023-04-18T07:02:36.695Z,25.4355
2023-04-18T07:03:38.039Z,25.2603
2023-04-18T07:04:39.495Z,25.0431
2023-04-18T07:05:40.977Z,25.0078
2023-04-18T07:06:42.280Z,25.1216
2023-04-18T07:07:43.712Z,25.3728
2023-04-18T07:08:45.090Z,25.3443
2023-04-18T07:09:46.597Z,25.1699
2023-04-18T07:10:47.997Z,24.9840
2023-04-18T07:11:49.415Z,25.1175
2023-04-18T07:12:50.791Z,25.3525
2023-04-18T07:13:52.282Z,25.5088
2023-04-18T07:14:54.354Z,25.2557
2023-04-18T07:15:55.403Z,25.1746
2023-04-18T07:16:56.542Z,25.2358
2023-04-18T07:17:58.870Z,25.4909
2023-04-18T07:18:59.375Z,25.6384
2023-04-18T07:20:00.850Z,25.5180
2023-04-18T07:21:02.299Z,25.2894
2023-04-18T07:22:03.667Z,25.1456
2023-04-18T07:23:05.000Z,25.3459
2023-04-18T07:24:06.511Z,25.6049
2023-04-18T07:25:07.976Z,25.6296
2023-04-18T07:26:09.368Z,25.4299
2023-04-18T07:27:10.849Z,25.2586
2023-04-18T07:28:12.193Z,25.2718
2023-04-18T07:29:13.617Z,25.5404
2023-04-18T07:30:15.064Z,25.7814
2023-04-18T07:31:16.731Z,25.6908
2023-04-18T07:32:17.876Z,25.5421
2023-04-18T07:33:19.323Z,25.4681
2023-04-18T07:34:20.694Z,25.5764
2023-04-18T07:35:22.234Z,25.8317
2023-04-18T07:36:23.644Z,25.7999
2023-04-18T07:37:25.041Z,25.6596
2023-04-18T07:38:26.408Z,25.5254
2023-04-18T07:39:27.846Z,25.6216
2023-04-18T07:40:29.260Z,25.8900
2023-04-18T07:41:30.727Z,25.9354
2023-04-18T07:42:32.074Z,25.6664
2023-04-18T07:43:33.580Z,25.5799
2023-04-18T07:44:34.921Z,25.5743
2023-04-18T07:45:36.409Z,25.7845
2023-04-18T07:46:37.843Z,25.9969
2023-04-18T07:47:39.269Z,25.8802
2023-04-18T07:48:40.682Z,25.6822
2023-04-18T07:49:42.073Z,25.5710
2023-04-18T07:50:43.568Z,25.6994
2023-04-18T07:51:44.918Z,25.9229
2023-04-18T07:52:46.290Z,25.9305
2023-04-18T07:53:47.707Z,25.6542
2023-04-18T07:54:49.108Z,25.5415
2023-04-18T07:55:50.625Z,25.7233
2023-04-18T07:56:52.046Z,25.9276
2023-04-18T07:57:53.456Z,25.9291
2023-04-18T07:58:54.873Z,25.7093
2023-04-18T07:59:56.227Z,25.5402
2023-04-18T08:00:57.772Z,25.6538
2023-04-18T08:01:59.285Z,25.9402
2023-04-18T08:03:00.741Z,26.0316
2023-04-18T08:04:02.346Z,25.8553
2023-04-18T08:05:03.558Z,25.8319
2023-04-18T08:06:04.912Z,25.7682
2023-04-18T08:07:06.251Z,25.9445
2023-04-18T08:08:07.622Z,26.0887
2023-04-18T08:09:09.070Z,26.1039
2023-04-18T08:10:10.476Z,26.0045
2023-04-18T08:11:11.996Z,25.8748
2023-04-18T08:12:13.353Z,25.9508
2023-04-18T08:13:14.780Z,26.1854
2023-04-18T08:14:16.132Z,26.2014
2023-04-18T08:15:17.575Z,25.8631
2023-04-18T08:16:19.033Z,25.5678
2023-04-18T08:17:20.531Z,25.2902
2023-04-18T08:18:21.839Z,25.3003
2023-04-18T08:19:23.285Z,25.3463
2023-04-18T08:20:24.672Z,25.1506
2023-04-18T08:21:26.174Z,24.8802
2023-04-18T08:22:27.551Z,24.6278
2023-04-18T08:23:28.991Z,24.5354
2023-04-18T08:24:30.358Z,24.5520
2023-04-18T08:25:31.892Z,24.5594
2023-04-18T08:26:33.338Z,24.3480
2023-04-18T08:27:34.749Z,24.1287
2023-04-18T08:28:36.065Z,24.0196
2023-04-18T08:29:37.549Z,24.0475
2023-04-18T08:30:38.908Z,24.0549
2023-04-18T08:31:40.429Z,23.9943
2023-04-18T08:32:41.843Z,23.7564
2023-04-18T08:33:43.194Z,23.5718
2023-04-18T08:34:44.579Z,23.5112
2023-04-18T08:35:46.050Z,23.5145
2023-04-18T08:36:47.494Z,23.5445
2023-04-18T08:37:49.010Z,23.4972
2023-04-18T08:38:50.192Z,23.3208
2023-04-18T08:39:51.764Z,23.2292
2023-04-18T08:40:53.130Z,23.2072
2023-04-18T08:41:54.632Z,23.2234
2023-04-18T08:42:56.000Z,23.3023
2023-04-18T08:43:57.393Z,23.1762
2023-04-18T08:44:58.743Z,23.0143
2023-04-18T08:46:00.305Z,22.8837
2023-04-18T08:47:01.837Z,22.8436
2023-04-18T08:48:03.204Z,22.9401
2023-04-18T08:49:04.540Z,23.0967
2023-04-18T08:50:06.061Z,23.0326
2023-04-18T08:51:07.334Z,22.9332
2023-04-18T08:52:08.770Z,22.8333
2023-04-18T08:53:10.284Z,22.8678
2023-04-18T08:54:11.653Z,23.0094
2023-04-18T08:55:13.041Z,23.0841
2023-04-18T08:56:14.427Z,22.9888
2023-04-18T08:57:15.904Z,22.8296
2023-04-18T08:58:17.295Z,22.7524
2023-04-18T08:59:18.691Z,22.7384
2023-04-18T09:00:20.132Z,22.8518
2023-04-18T09:01:21.608Z,22.9126
2023-04-18T09:02:23.138Z,22.7041
2023-04-18T09:03:24.484Z,22.5780
2023-04-18T09:04:25.870Z,22.5427
2023-04-18T09:05:27.374Z,22.5661
2023-04-18T09:06:28.684Z,22.7469
2023-04-18T09:07:30.122Z,22.7799
2023-04-18T09:08:31.533Z,22.5897
2023-04-18T09:09:32.956Z,22.5154
2023-04-18T09:10:34.393Z,22.4806
2023-04-18T09:11:35.802Z,22.5265
2023-04-18T09:12:37.285Z,22.7335
2023-04-18T09:13:38.776Z,22.7399
2023-04-18T09:14:40.073Z,22.5675
2023-04-18T09:15:42.325Z,22.5022
2023-04-18T09:16:42.918Z,22.5014
2023-04-18T09:17:44.337Z,22.6121
2023-04-18T09:18:45.772Z,22.8824
2023-04-18T09:19:47.453Z,22.9270
2023-04-18T09:20:48.543Z,22.8563
2023-04-18T09:21:50.038Z,22.7294
2023-04-18T09:22:51.411Z,22.8019
2023-04-18T09:23:52.944Z,22.9385
2023-04-18T09:24:54.322Z,23.0615
2023-04-18T09:25:55.723Z,23.0240
2023-04-18T09:26:57.125Z,22.8374
2023-04-18T09:27:58.551Z,22.6828
2023-04-18T09:28:59.998Z,22.6259
2023-04-18T09:30:01.471Z,22.6655
2023-04-18T09:31:02.891Z,22.7715
2023-04-18T09:32:04.227Z,22.7432
2023-04-18T09:33:05.790Z,22.5226
2023-04-18T09:34:07.149Z,22.4098
2023-04-18T09:35:08.557Z,22.3745
2023-04-18T09:36:10.057Z,22.4250
2023-04-18T09:37:11.559Z,22.5525
2023-04-18T09:38:12.900Z,22.5983
2023-04-18T09:39:14.455Z,22.4730
2023-04-18T09:40:15.878Z,22.4293
2023-04-18T09:41:19.898Z,22.4581
2023-04-18T09:42:18.578Z,22.5189
2023-04-18T09:43:20.042Z,22.7341
2023-04-18T09:44:21.477Z,22.7818
2023-04-18T09:45:22.873Z,22.6234
2023-04-18T09:46:24.265Z,22.5254
2023-04-18T09:47:25.797Z,22.6080
2023-04-18T09:48:27.214Z,22.7292
2023-04-18T09:49:28.607Z,22.9348
2023-04-18T09:50:30.031Z,22.9383
2023-04-18T09:51:31.344Z,22.8249
2023-04-18T09:52:32.752Z,22.6934
2023-04-18T09:53:34.226Z,22.6287
2023-04-18T09:54:35.713Z,22.7047
2023-04-18T09:55:37.135Z,22.8498
2023-04-18T09:56:38.574Z,22.8181
2023-04-18T09:57:40.021Z,22.6733
2023-04-18T09:58:41.318Z,22.6129
2023-04-18T09:59:42.793Z,22.7678
2023-04-18T10:00:46.363Z,22.9636
2023-04-18T10:01:45.626Z,23.1162
2023-04-18T10:02:47.120Z,23.0299
2023-04-18T10:03:48.665Z,22.9408
2023-04-18T10:04:49.951Z,22.8035
2023-04-18T10:05:51.424Z,22.7933
2023-04-18T10:06:53.446Z,23.0114
2023-04-18T10:07:54.085Z,23.1959
2023-04-18T10:08:55.587Z,23.1341
2023-04-18T10:09:57.004Z,23.0235
2023-04-18T10:10:58.417Z,22.9701
2023-04-18T10:11:59.803Z,23.0079
2023-04-18T10:13:01.226Z,23.0934
2023-04-18T10:14:02.596Z,23.2197
2023-04-18T10:15:04.136Z,23.0657
2023-04-18T10:16:05.989Z,22.9432
2023-04-18T10:17:06.963Z,22.8609
2023-04-18T10:18:08.339Z,23.2935
2023-04-18T10:19:09.892Z,23.5260
2023-04-18T10:20:11.209Z,23.5163
2023-04-18T10:21:12.597Z,23.2209
2023-04-18T10:22:14.043Z,23.0724
2023-04-18T10:23:15.425Z,23.0258
2023-04-18T10:24:16.803Z,23.0299
2023-04-18T10:25:18.337Z,23.2107
2023-04-18T10:26:19.734Z,23.2951
2023-04-18T10:27:21.099Z,23.1445
2023-04-18T10:28:23.408Z,23.0441
2023-04-18T10:29:23.964Z,23.0303
2023-04-18T10:30:25.465Z,23.0880
2023-04-18T10:31:27.160Z,23.2836
2023-04-18T10:32:28.317Z,23.3851
2023-04-18T10:33:31.921Z,23.2263
2023-04-18T10:34:31.057Z,23.0839
2023-04-18T10:35:32.565Z,23.0872
2023-04-18T10:36:33.950Z,23.3522
2023-04-18T10:37:35.336Z,23.7071
2023-04-18T10:38:36.714Z,23.6681
2023-04-18T10:39:38.177Z,23.7546
2023-04-18T10:40:39.559Z,23.8904
2023-04-18T10:41:41.042Z,23.8487
2023-04-18T10:42:42.394Z,23.8388
2023-04-18T10:43:45.471Z,23.8783
2023-04-18T10:55:55.265Z,23.7583
2023-04-18T10:56:57.614Z,23.0438
2023-04-18T10:57:58.877Z,22.8935
2023-04-18T10:59:00.411Z,22.8179
2023-04-18T11:00:01.965Z,22.8111
2023-04-18T11:01:03.334Z,22.9167
2023-04-18T11:02:04.771Z,23.0550
2023-04-18T11:03:06.245Z,23.0451
2023-04-18T11:04:07.749Z,23.0482
2023-04-18T11:05:08.970Z,23.0336
2023-04-18T11:06:10.380Z,23.0400
2023-04-18T11:07:11.716Z,23.1914
2023-04-18T11:08:13.195Z,23.3522
2023-04-18T11:09:14.788Z,23.2140
2023-04-18T11:10:16.122Z,23.2062
2023-04-18T11:11:17.567Z,23.0817
2023-04-18T11:12:18.863Z,23.1380
2023-04-18T11:13:20.325Z,23.2183
2023-04-18T11:14:21.758Z,23.3156
2023-04-18T11:15:23.161Z,23.2214
2023-04-18T11:16:24.610Z,23.0940
2023-04-18T11:17:26.164Z,23.0330
2023-04-18T11:18:27.493Z,23.0889
2023-04-18T11:19:28.858Z,23.3232
2023-04-18T11:20:30.309Z,23.5194
2023-04-18T11:21:31.698Z,23.5040
2023-04-18T11:22:33.202Z,23.4416
2023-04-18T11:23:34.604Z,23.2635
2023-04-18T11:24:35.981Z,23.3089
2023-04-18T11:25:37.340Z,23.4473
2023-04-18T11:26:38.817Z,23.5254
2023-04-18T11:27:40.241Z,23.4909
2023-04-18T11:28:41.684Z,23.2857
2023-04-18T11:29:43.113Z,23.1827
2023-04-18T11:30:44.496Z,23.1807
2023-04-18T11:31:46.001Z,23.2357
2023-04-18T11:32:47.482Z,23.4422
2023-04-18T11:33:48.831Z,23.4533
2023-04-18T11:34:50.186Z,23.2920
2023-04-18T11:35:51.635Z,23.1486
2023-04-18T11:36:53.155Z,23.1256
2023-04-18T11:37:54.504Z,23.2127
2023-04-18T11:38:55.973Z,23.3729
2023-04-18T11:39:57.236Z,23.4500
2023-04-18T11:40:58.729Z,23.3725
2023-04-18T11:42:00.201Z,23.2770
2023-04-18T11:43:01.604Z,23.3362
2023-04-18T11:44:03.076Z,23.4409
2023-04-18T11:45:04.425Z,23.6030
2023-04-18T11:46:05.867Z,23.5816
2023-04-18T11:47:07.194Z,23.4450
2023-04-18T11:48:08.861Z,23.2493
2023-04-18T11:49:10.304Z,23.2368
2023-04-18T11:50:11.576Z,23.3191
2023-04-18T11:51:12.998Z,23.5063
2023-04-18T11:52:14.417Z,23.4611
2023-04-18T11:53:15.718Z,23.2992
2023-04-18T11:54:17.293Z,23.2579
2023-04-18T11:55:18.676Z,23.2887
2023-04-18T11:56:20.128Z,23.4457
2023-04-18T11:57:21.567Z,23.5775
2023-04-18T11:58:22.967Z,23.5245
2023-04-18T11:59:24.485Z,23.5311
2023-04-18T12:00:25.735Z,23.5069
2023-04-18T12:01:27.111Z,23.5229
2023-04-18T12:02:28.798Z,23.5771
2023-04-18T12:03:30.319Z,23.5946
2023-04-18T12:04:31.723Z,23.4048
2023-04-18T12:05:33.044Z,23.2744
2023-04-18T12:06:34.345Z,23.2520
2023-04-18T12:07:35.731Z,23.3360
2023-04-18T12:08:37.077Z,23.5124
2023-04-18T12:09:38.701Z,23.5217
2023-04-18T12:10:40.069Z,23.4251
2023-04-18T12:11:41.469Z,23.3185
2023-04-18T12:12:42.989Z,23.3185
2023-04-18T12:13:44.256Z,23.4070
2023-04-18T12:14:45.732Z,23.5270
2023-04-18T12:15:47.219Z,23.4894
2023-04-18T12:16:48.543Z,23.3489
2023-04-18T12:17:50.006Z,23.2437
2023-04-18T12:18:51.354Z,23.2608
2023-04-18T12:19:52.919Z,23.3723
2023-04-18T12:20:54.372Z,23.5184
2023-04-18T12:21:55.671Z,23.4718
2023-04-18T12:22:57.161Z,23.3801
2023-04-18T12:23:58.569Z,23.2748
2023-04-18T12:24:59.964Z,23.3043
2023-04-18T12:26:01.449Z,23.4537
2023-04-18T12:27:02.820Z,23.5551
2023-04-18T12:28:04.398Z,23.4529
2023-04-18T12:29:05.711Z,23.3538
2023-04-18T12:30:07.206Z,23.2859
2023-04-18T12:31:08.600Z,23.3732
2023-04-18T12:32:09.855Z,23.5449
2023-04-18T12:33:11.326Z,23.6453
2023-04-18T12:34:12.935Z,23.5375